Impacts TAF Board
For situational awareness. Not to be used for flight planning purposes.
IDs:

KMIA - Miami Intl, FL, US

Issued at 0904 UTC 23 Jan 2019
Updated at 0911 UTC 23 Jan 2019
Potential Impact None Slight Moderate High
Time0853Z 23/10Z 23/11Z 23/12Z 23/13Z 23/14Z 23/15Z 23/16Z 23/17Z 23/18Z 23/19Z 23/20Z 23/21Z 23/22Z>>
Type OBS PRVL PRVL PRVL PRVL PRVL PRVL PRVL PRVL PRVL PRVL PRVL PRVL PRVL
VIS 10 >6 >6 >6 >6 >6 >6 >6 >6 >6 >6 >6 >6 >6
CIG 55 50 50 50 50 50 50 50 50 50 50 50 50 50
Cover BKN BKN BKN BKN BKN BKN BKN BKN BKN BKN BKN BKN BKN BKN
FltCat VFR VFR VFR VFR VFR VFR VFR VFR VFR VFR VFR VFR VFR VFR
WX -- -- -- -- -- -- -- -- -- -- -- -- -- --
WDir 100 110 110 110 110 130 130 130 130 130 130 130 130 130
WSpd 19 20 20 20 20 20 20 20 20 20 20 20 20 20
WGst 28 -- -- -- -- -- -- -- -- -- -- -- -- --
Raw TAF
KMIA 230904Z 2309/2412 11020KT P6SM SCT040 BKN050
  FM231400 13020KT P6SM BKN050


Raw METAR
KMIA 230853Z 10019G28KT 10SM SCT047 BKN055 22/16 A3023 RMK AO2 PK WND 10029/0815 SLP235 T02170156 56011
KMIA 230753Z 10017KT 10SM FEW037 SCT050 SCT250 21/15 A3023 RMK AO2 PK WND 11026/0706 SLP236 T02110150
KMIA 230653Z 10016G26KT 10SM FEW037 FEW050 SCT250 21/16 A3025 RMK AO2 PK WND 11026/0647 SLP242 T02110156

METAR Board
Radar Display
Forecast Discussion
For situational awareness. Not to be used for flight planning purposes.